• Join FlightAware (Why Join?)
  • Login
  • US Flag 
08:25AM EDT


 

Airport Tracker/Info


-or-


 

Live Flight TrackerFlight Track Log ✈ CTL16 ✈ 01-Jul-2013 ✈ KHAO - KBKL

Flight Track Log - Related Links

Times and Time Zones

All times are in EDT time to prevent confusion due to time zone crossing. See the CTL16 flight status page for this flight to view local times or setup timezone preferences in your user account.

Time Position Orientation Groundspeed Altitude Reporting Facility
EDT Latitude Longitude Course Direction KTS MPH feet Rate Location/Type
09:05PM 39.3833 -84.4667 38° Northeast 127 146 1,600  Level Cincinnati TRACON
09:06PM 39.4000 -84.4500 38° Northeast 133 153 2,400 720 Climbing Cincinnati TRACON
09:07PM 39.4217 -84.4192 48° Northeast 131 151 2,900 540 Climbing Indianapolis Center
09:08PM 39.4514 -84.3847 42° Northeast 144 166 3,400 420 Climbing Indianapolis Center
09:09PM 39.4819 -84.3492 42° Northeast 144 166 3,800 420 Climbing Indianapolis Center
09:10PM 39.5111 -84.3086 47° Northeast 148 170 4,300 360 Climbing Indianapolis Center
09:11PM 39.5408 -84.2683 46° Northeast 151 174 4,600 300 Climbing Indianapolis Center
09:12PM 39.5700 -84.2283 47° Northeast 152 175 5,000 240 Climbing Indianapolis Center
09:13PM 39.6028 -84.1906 42° Northeast 153 176 5,100 60 Climbing Indianapolis Center
09:14PM 39.6239 -84.1656 42° Northeast 164 189 5,100 -120 Level Indianapolis Center
09:15PM 39.6556 -84.1250 45° Northeast 162 186 5,000  Descending Indianapolis Center
09:16PM 39.6844 -84.0894 43° Northeast 161 185 5,100  Climbing Indianapolis Center
09:16PM 39.7028 -84.0678 42° Northeast 162 186 5,000  Descending Indianapolis Center
09:17PM 39.7356 -84.0269 44° Northeast 163 188 5,100 60 Climbing Indianapolis Center
09:18PM 39.7547 -84.0008 46° Northeast 161 185 5,100  Level Indianapolis Center
09:18PM 39.7669 -83.9842 46° Northeast 162 186 5,100  Level Indianapolis Center
09:19PM 39.8006 -83.9425 44° Northeast 163 188 5,100 -60 Level Indianapolis Center
09:20PM 39.8336 -83.8989 45° Northeast 166 191 5,000  Descending Indianapolis Center
09:21PM 39.8672 -83.8564 44° Northeast 166 191 5,100  Climbing Indianapolis Center
09:22PM 39.9003 -83.8147 44° Northeast 165 190 5,000 -60 Descending Indianapolis Center
09:23PM 39.9333 -83.7714 45° Northeast 165 190 5,000  Level Indianapolis Center
09:24PM 39.9658 -83.7283 45° Northeast 165 190 5,000  Level Indianapolis Center
09:25PM 39.9989 -83.6867 44° Northeast 164 189 5,100  Climbing Indianapolis Center
09:27PM 40.0433 -83.6275 46° Northeast 165 190 5,000  Descending Indianapolis Center
09:27PM 40.0639 -83.6017 44° Northeast 163 188 5,100  Climbing Indianapolis Center
09:28PM 40.0961 -83.5606 44° Northeast 161 185 5,000 -60 Descending Indianapolis Center
09:29PM 40.1281 -83.5192 45° Northeast 160 184 5,000  Level Indianapolis Center
09:30PM 40.1661 -83.4708 44° Northeast 161 185 5,000  Level Indianapolis Center
09:32PM 40.1994 -83.4281 44° Northeast 163 188 5,100  Climbing Indianapolis Center
09:33PM 40.2331 -83.3839 45° Northeast 166 191 5,100  Level Indianapolis Center
09:34PM 40.2678 -83.3406 44° Northeast 169 194 5,100 -60 Level Indianapolis Center
09:35PM 40.3017 -83.2964 45° Northeast 170 196 5,000 -60 Descending Indianapolis Center
09:36PM 40.3361 -83.2539 43° Northeast 169 194 5,000  Level Indianapolis Center
09:37PM 40.3694 -83.2106 45° Northeast 168 193 5,100  Climbing Indianapolis Center
09:38PM 40.4028 -83.1669 45° Northeast 168 193 5,000 -60 Descending Indianapolis Center
09:39PM 40.4361 -83.1236 45° Northeast 168 193 5,000  Level Indianapolis Center
09:40PM 40.4703 -83.0817 43° Northeast 167 192 5,000  Level Indianapolis Center
09:41PM 40.5031 -83.0386 45° Northeast 166 191 5,000  Level Indianapolis Center
09:42PM 40.5353 -82.9953 46° Northeast 167 192 5,000  Level Indianapolis Center
09:43PM 40.5669 -82.9519 46° Northeast 165 190 5,000  Level Indianapolis Center
09:44PM 40.5992 -82.9072 46° Northeast 167 192 5,000  Level Indianapolis Center
09:45PM 40.6317 -82.8639 45° Northeast 166 191 5,000  Level Indianapolis Center
09:46PM 40.6636 -82.8194 47° Northeast 166 191 5,000 -60 Level Indianapolis Center
09:47PM 40.6953 -82.7750 47° Northeast 165 190 4,900  Descending Indianapolis Center
09:48PM 40.7286 -82.7331 44° Northeast 164 189 5,000 60 Climbing Indianapolis Center